Time,TemperatureF,DewpointF,PressureIn,WindDirection,WindDirectionDegrees,WindSpeedMPH,WindSpeedGustMPH,Humidity,HourlyPrecipIn,Conditions,Clouds,dailyrainin,SoftwareType,DateUTC
2013-11-07 00:09:00,55.7,55.4,29.95,West,260,1.0,2.0,99,0.00,,,0.00,VWS V14.01,2013-11-07 05:09:00,
2013-11-07 00:19:00,56.0,55.7,29.94,NE,42,0.0,3.0,99,0.00,,,0.00,VWS V14.01,2013-11-07 05:19:00,
2013-11-07 00:29:00,56.3,56.0,29.93,NNW,339,1.0,4.0,99,0.00,,,0.00,VWS V14.01,2013-11-07 05:29:00,
2013-11-07 00:39:00,56.5,55.9,29.93,WNW,290,1.0,3.0,98,0.00,,,0.00,VWS V14.01,2013-11-07 05:39:00,
2013-11-07 00:49:00,56.7,56.1,29.92,WSW,239,1.0,4.0,98,0.00,,,0.00,VWS V14.01,2013-11-07 05:49:00,
2013-11-07 00:59:00,56.9,56.1,29.92,NNE,23,0.0,2.0,97,0.00,,,0.00,VWS V14.01,2013-11-07 05:59:00,
2013-11-07 01:09:00,57.0,56.2,29.92,SW,227,2.0,3.0,97,0.00,,,0.00,VWS V14.01,2013-11-07 06:09:00,
2013-11-07 01:19:00,57.1,56.0,29.91,South,170,0.0,2.0,96,0.00,,,0.00,VWS V14.01,2013-11-07 06:19:00,
2013-11-07 01:29:00,57.3,56.2,29.90,West,269,0.0,5.0,96,0.00,,,0.00,VWS V14.01,2013-11-07 06:29:00,
2013-11-07 01:39:00,57.6,56.5,29.90,West,274,0.0,3.0,96,0.00,,,0.00,VWS V14.01,2013-11-07 06:39:00,
2013-11-07 01:49:00,57.8,56.7,29.89,WNW,288,1.0,3.0,96,0.00,,,0.00,VWS V14.01,2013-11-07 06:49:00,
2013-11-07 01:59:00,57.9,56.8,29.89,WNW,284,1.0,3.0,96,0.00,,,0.00,VWS V14.01,2013-11-07 06:59:00,
2013-11-07 02:09:00,58.0,57.2,29.89,WNW,288,0.0,3.0,97,0.00,,,0.00,VWS V14.01,2013-11-07 07:09:00,
2013-11-07 02:19:00,58.2,57.4,29.89,West,265,0.0,9.0,97,0.00,,,0.00,VWS V14.01,2013-11-07 07:19:00,
2013-11-07 02:29:00,58.3,57.5,29.87,North,350,0.0,6.0,97,0.00,,,0.00,VWS V14.01,2013-11-07 07:29:00,
2013-11-07 02:39:00,58.4,57.6,29.87,SSW,200,5.0,6.0,97,0.00,,,0.00,VWS V14.01,2013-11-07 07:39:00,
2013-11-07 02:49:00,58.5,57.7,29.86,ENE,61,1.0,6.0,97,0.00,,,0.00,VWS V14.01,2013-11-07 07:49:00,
2013-11-07 02:59:00,58.5,57.7,29.85,WNW,297,3.0,7.0,97,0.00,,,0.00,VWS V14.01,2013-11-07 07:59:00,
2013-11-07 03:09:00,58.7,58.1,29.85,NNW,342,0.0,5.0,98,0.00,,,0.00,VWS V14.01,2013-11-07 08:09:00,
2013-11-07 03:19:00,58.8,58.2,29.84,NNE,30,2.0,6.0,98,0.00,,,0.00,VWS V14.01,2013-11-07 08:19:00,
2013-11-07 03:29:00,58.8,58.2,29.83,NNE,25,1.0,6.0,98,0.00,,,0.00,VWS V14.01,2013-11-07 08:29:00,
2013-11-07 03:39:00,59.0,58.4,29.83,NNE,27,1.0,5.0,98,0.01,,,0.01,VWS V14.01,2013-11-07 08:39:00,
2013-11-07 03:49:00,59.2,58.6,29.83,SW,225,1.0,7.0,98,0.01,,,0.01,VWS V14.01,2013-11-07 08:49:00,
2013-11-07 03:59:00,59.3,58.7,29.82,West,264,3.0,9.0,98,0.01,,,0.01,VWS V14.01,2013-11-07 08:59:00,
2013-11-07 04:09:00,59.4,58.8,29.82,SW,223,3.0,6.0,98,0.01,,,0.01,VWS V14.01,2013-11-07 09:09:00,
2013-11-07 04:19:00,59.4,58.8,29.81,WNW,293,3.0,7.0,98,0.02,,,0.02,VWS V14.01,2013-11-07 09:19:00,
2013-11-07 04:29:00,59.5,58.9,29.81,SW,227,3.0,5.0,98,0.02,,,0.02,VWS V14.01,2013-11-07 09:29:00,
2013-11-07 04:39:00,59.5,58.9,29.81,WSW,248,4.0,10.0,98,0.02,,,0.02,VWS V14.01,2013-11-07 09:39:00,
2013-11-07 04:49:00,59.5,58.9,29.80,SW,221,1.0,7.0,98,0.01,,,0.02,VWS V14.01,2013-11-07 09:49:00,
2013-11-07 04:59:00,59.5,58.9,29.79,WNW,293,1.0,7.0,98,0.01,,,0.02,VWS V14.01,2013-11-07 09:59:00,
2013-11-07 05:09:00,59.5,58.9,29.79,SW,232,1.0,4.0,98,0.01,,,0.02,VWS V14.01,2013-11-07 10:09:00,
2013-11-07 05:19:00,59.5,58.9,29.78,WSW,251,2.0,5.0,98,0.01,,,0.02,VWS V14.01,2013-11-07 10:19:00,
2013-11-07 05:29:00,59.4,58.8,29.78,NE,46,1.0,3.0,98,0.01,,,0.03,VWS V14.01,2013-11-07 10:29:00,
2013-11-07 05:39:00,59.4,58.8,29.78,SW,216,1.0,4.0,98,0.01,,,0.03,VWS V14.01,2013-11-07 10:39:00,
2013-11-07 05:49:00,59.3,58.7,29.77,NW,304,1.0,4.0,98,0.02,,,0.04,VWS V14.01,2013-11-07 10:49:00,
2013-11-07 05:59:00,59.3,58.7,29.76,NE,44,0.0,3.0,98,0.03,,,0.05,VWS V14.01,2013-11-07 10:59:00,
2013-11-07 06:09:00,59.3,59.0,29.76,SW,231,1.0,6.0,99,0.03,,,0.05,VWS V14.01,2013-11-07 11:09:00,
2013-11-07 06:19:00,59.4,59.1,29.76,West,260,2.0,7.0,99,0.03,,,0.05,VWS V14.01,2013-11-07 11:19:00,
2013-11-07 06:29:00,59.5,58.9,29.75,WNW,301,3.0,6.0,98,0.04,,,0.06,VWS V14.01,2013-11-07 11:29:00,
2013-11-07 06:39:00,59.5,59.2,29.75,NNE,22,1.0,6.0,99,0.03,,,0.06,VWS V14.01,2013-11-07 11:39:00,
2013-11-07 06:49:00,59.6,59.3,29.75,NE,46,1.0,3.0,99,0.03,,,0.06,VWS V14.01,2013-11-07 11:49:00,
2013-11-07 06:59:00,59.7,59.4,29.75,SW,220,1.0,7.0,99,0.02,,,0.06,VWS V14.01,2013-11-07 11:59:00,
2013-11-07 07:09:00,59.7,59.4,29.75,SSW,198,1.0,4.0,99,0.01,,,0.06,VWS V14.01,2013-11-07 12:09:00,
2013-11-07 07:19:00,59.8,59.5,29.74,WSW,242,3.0,6.0,99,0.01,,,0.06,VWS V14.01,2013-11-07 12:19:00,
2013-11-07 07:29:00,59.9,59.6,29.73,WSW,253,3.0,6.0,99,0.01,,,0.06,VWS V14.01,2013-11-07 12:29:00,
2013-11-07 07:39:00,60.0,59.7,29.73,North,355,1.0,10.0,99,0.00,,,0.06,VWS V14.01,2013-11-07 12:39:00,
2013-11-07 07:49:00,60.0,59.7,29.74,SW,234,0.0,6.0,99,0.00,,,0.06,VWS V14.01,2013-11-07 12:49:00,
2013-11-07 07:59:00,60.1,59.8,29.74,WSW,238,2.0,6.0,99,0.00,,,0.06,VWS V14.01,2013-11-07 12:59:00,
2013-11-07 08:09:00,60.1,59.8,29.74,NNE,30,1.0,4.0,99,0.00,,,0.06,VWS V14.01,2013-11-07 13:09:00,
2013-11-07 08:19:00,60.2,59.9,29.73,NW,307,1.0,5.0,99,0.00,,,0.06,VWS V14.01,2013-11-07 13:19:00,
2013-11-07 08:29:00,60.5,60.2,29.72,WNW,288,3.0,7.0,99,0.00,,,0.06,VWS V14.01,2013-11-07 13:29:00,
2013-11-07 08:39:00,61.0,60.7,29.72,WSW,249,3.0,6.0,99,0.00,,,0.06,VWS V14.01,2013-11-07 13:39:00,
2013-11-07 08:49:00,61.0,60.7,29.72,West,279,1.0,5.0,99,0.00,,,0.06,VWS V14.01,2013-11-07 13:49:00,
2013-11-07 08:59:00,61.0,60.7,29.72,WSW,254,2.0,6.0,99,0.00,,,0.06,VWS V14.01,2013-11-07 13:59:00,
2013-11-07 09:09:00,60.9,60.3,29.72,West,269,1.0,11.0,98,0.00,,,0.06,VWS V14.01,2013-11-07 14:09:00,
2013-11-07 09:19:00,60.9,60.3,29.70,NE,49,2.0,6.0,98,0.00,,,0.06,VWS V14.01,2013-11-07 14:19:00,
2013-11-07 09:29:00,60.9,60.3,29.71,SW,227,2.0,9.0,98,0.00,,,0.06,VWS V14.01,2013-11-07 14:29:00,
2013-11-07 09:39:00,60.8,60.2,29.71,North,5,2.0,7.0,98,0.00,,,0.06,VWS V14.01,2013-11-07 14:39:00,
2013-11-07 09:49:00,60.6,59.8,29.71,SW,236,3.0,6.0,97,0.00,,,0.06,VWS V14.01,2013-11-07 14:49:00,
2013-11-07 09:59:00,60.4,59.5,29.70,WSW,252,3.0,8.0,97,0.00,,,0.06,VWS V14.01,2013-11-07 14:59:00,
2013-11-07 10:09:00,60.3,59.5,29.70,WSW,246,2.0,6.0,97,0.00,,,0.06,VWS V14.01,2013-11-07 15:09:00,
2013-11-07 10:19:00,60.3,59.5,29.70,West,266,0.0,6.0,97,0.00,,,0.06,VWS V14.01,2013-11-07 15:19:00,
2013-11-07 10:29:00,60.2,59.3,29.68,WNW,302,0.0,4.0,97,0.00,,,0.06,VWS V14.01,2013-11-07 15:29:00,
2013-11-07 10:39:00,60.2,59.6,29.68,NE,41,1.0,4.0,98,0.00,,,0.06,VWS V14.01,2013-11-07 15:39:00,
2013-11-07 10:49:00,60.2,59.3,29.67,WSW,251,2.0,5.0,97,0.00,,,0.06,VWS V14.01,2013-11-07 15:49:00,
2013-11-07 10:59:00,60.0,59.2,29.66,WSW,257,2.0,5.0,97,0.01,,,0.07,VWS V14.01,2013-11-07 15:59:00,
2013-11-07 11:09:00,60.0,59.2,29.66,WSW,256,1.0,10.0,97,0.01,,,0.07,VWS V14.01,2013-11-07 16:09:00,
2013-11-07 11:19:00,60.0,59.4,29.66,NNE,17,0.0,6.0,98,0.01,,,0.07,VWS V14.01,2013-11-07 16:19:00,
2013-11-07 11:29:00,60.0,59.4,29.65,WSW,244,1.0,6.0,98,0.01,,,0.07,VWS V14.01,2013-11-07 16:29:00,
2013-11-07 11:39:00,60.0,59.4,29.65,SW,225,0.0,5.0,98,0.02,,,0.08,VWS V14.01,2013-11-07 16:39:00,
2013-11-07 11:49:00,59.9,59.3,29.64,SSW,209,1.0,4.0,98,0.02,,,0.08,VWS V14.01,2013-11-07 16:49:00,
2013-11-07 11:59:00,59.7,59.1,29.63,WSW,254,2.0,5.0,98,0.03,,,0.09,VWS V14.01,2013-11-07 16:59:00,
2013-11-07 12:09:00,59.6,59.0,29.63,WSW,242,2.0,5.0,98,0.04,,,0.11,VWS V14.01,2013-11-07 17:09:00,
2013-11-07 12:19:00,59.6,59.0,29.62,SW,219,4.0,4.0,98,0.04,,,0.11,VWS V14.01,2013-11-07 17:19:00,
2013-11-07 12:29:00,59.6,59.0,29.61,South,186,1.0,6.0,98,0.05,,,0.12,VWS V14.01,2013-11-07 17:29:00,
2013-11-07 12:39:00,59.6,59.0,29.61,SW,229,2.0,3.0,98,0.06,,,0.13,VWS V14.01,2013-11-07 17:39:00,
2013-11-07 12:49:00,59.5,58.9,29.61,South,188,0.0,4.0,98,0.05,,,0.13,VWS V14.01,2013-11-07 17:49:00,
2013-11-07 12:59:00,59.3,58.7,29.61,SSW,212,0.0,3.0,98,0.07,,,0.15,VWS V14.01,2013-11-07 17:59:00,
2013-11-07 13:09:00,59.2,58.6,29.61,SSW,209,1.0,3.0,98,0.08,,,0.17,VWS V14.01,2013-11-07 18:09:00,
2013-11-07 13:19:00,59.1,58.5,29.61,SW,225,0.0,3.0,98,0.08,,,0.19,VWS V14.01,2013-11-07 18:19:00,
2013-11-07 13:29:00,59.1,58.5,29.59,SW,225,0.0,2.0,98,0.10,,,0.21,VWS V14.01,2013-11-07 18:29:00,
2013-11-07 13:39:00,59.2,58.6,29.59,SW,225,1.0,2.0,98,0.09,,,0.21,VWS V14.01,2013-11-07 18:39:00,
2013-11-07 13:49:00,59.1,58.5,29.60,South,191,0.0,3.0,98,0.09,,,0.22,VWS V14.01,2013-11-07 18:49:00,
2013-11-07 13:59:00,59.2,58.9,29.59,South,191,1.0,1.0,99,0.09,,,0.22,VWS V14.01,2013-11-07 18:59:00,
2013-11-07 14:09:00,59.2,58.6,29.59,SSW,207,1.0,4.0,98,0.07,,,0.22,VWS V14.01,2013-11-07 19:09:00,
2013-11-07 14:19:00,59.0,58.4,29.60,SW,229,2.0,5.0,98,0.06,,,0.23,VWS V14.01,2013-11-07 19:19:00,
2013-11-07 14:29:00,58.7,58.1,29.61,SSW,200,1.0,5.0,98,0.04,,,0.23,VWS V14.01,2013-11-07 19:29:00,
2013-11-07 14:39:00,58.5,57.9,29.61,SW,219,1.0,4.0,98,0.02,,,0.23,VWS V14.01,2013-11-07 19:39:00,
2013-11-07 14:49:00,58.2,57.6,29.60,SSW,209,3.0,5.0,98,0.03,,,0.24,VWS V14.01,2013-11-07 19:49:00,
2013-11-07 14:59:00,58.1,57.3,29.61,SSW,207,0.0,5.0,97,0.02,,,0.24,VWS V14.01,2013-11-07 19:59:00,
2013-11-07 15:09:00,58.0,57.4,29.61,SW,234,3.0,4.0,98,0.02,,,0.24,VWS V14.01,2013-11-07 20:09:00,
2013-11-07 15:19:00,56.1,54.1,29.63,SW,230,2.0,17.0,93,0.04,,,0.26,VWS V14.01,2013-11-07 20:19:00,
2013-11-07 15:29:00,54.6,52.9,29.62,SSW,208,1.0,10.0,94,0.04,,,0.27,VWS V14.01,2013-11-07 20:29:00,
2013-11-07 15:39:00,54.0,52.6,29.62,SSW,207,0.0,4.0,95,0.04,,,0.27,VWS V14.01,2013-11-07 20:39:00,
2013-11-07 15:49:00,53.7,52.3,29.63,SW,225,0.0,5.0,95,0.04,,,0.27,VWS V14.01,2013-11-07 20:49:00,
2013-11-07 15:59:00,53.6,52.2,29.62,SSW,213,0.0,5.0,95,0.03,,,0.27,VWS V14.01,2013-11-07 20:59:00,
2013-11-07 16:09:00,53.5,52.1,29.62,SSW,211,1.0,5.0,95,0.03,,,0.27,VWS V14.01,2013-11-07 21:09:00,
2013-11-07 16:19:00,53.1,51.7,29.62,South,190,1.0,7.0,95,0.03,,,0.27,VWS V14.01,2013-11-07 21:19:00,
2013-11-07 16:29:00,52.8,51.4,29.62,SW,216,1.0,4.0,95,0.02,,,0.28,VWS V14.01,2013-11-07 21:29:00,
2013-11-07 16:39:00,52.6,51.5,29.62,SSW,206,1.0,4.0,96,0.01,,,0.28,VWS V14.01,2013-11-07 21:39:00,
2013-11-07 16:49:00,52.4,51.3,29.63,SSW,202,1.0,4.0,96,0.02,,,0.29,VWS V14.01,2013-11-07 21:49:00,
2013-11-07 16:59:00,52.1,51.0,29.64,South,185,0.0,5.0,96,0.02,,,0.29,VWS V14.01,2013-11-07 21:59:00,
2013-11-07 17:09:00,52.0,51.2,29.64,SSW,200,0.0,4.0,97,0.02,,,0.29,VWS V14.01,2013-11-07 22:09:00,
2013-11-07 17:19:00,52.0,51.2,29.64,WSW,248,0.0,4.0,97,0.02,,,0.29,VWS V14.01,2013-11-07 22:19:00,
2013-11-07 17:29:00,51.9,51.1,29.65,SW,228,0.0,5.0,97,0.02,,,0.29,VWS V14.01,2013-11-07 22:29:00,
2013-11-07 17:39:00,51.7,50.6,29.65,SW,223,1.0,3.0,96,0.01,,,0.29,VWS V14.01,2013-11-07 22:39:00,
2013-11-07 17:49:00,51.2,49.8,29.66,South,184,2.0,10.0,95,0.01,,,0.29,VWS V14.01,2013-11-07 22:49:00,
2013-11-07 17:59:00,50.8,49.4,29.67,SW,223,3.0,6.0,95,0.00,,,0.29,VWS V14.01,2013-11-07 22:59:00,
2013-11-07 18:09:00,50.0,48.1,29.67,NW,326,0.0,5.0,93,0.00,,,0.29,VWS V14.01,2013-11-07 23:09:00,
2013-11-07 18:19:00,49.5,47.6,29.67,ESE,121,0.0,3.0,93,0.00,,,0.29,VWS V14.01,2013-11-07 23:19:00,
2013-11-07 18:29:00,49.1,47.2,29.68,SW,219,3.0,3.0,93,0.00,,,0.29,VWS V14.01,2013-11-07 23:29:00,
2013-11-07 18:39:00,48.9,47.2,29.68,SSW,211,1.0,5.0,94,0.00,,,0.29,VWS V14.01,2013-11-07 23:39:00,
2013-11-07 18:49:00,48.7,46.8,29.69,NNE,20,0.0,4.0,93,0.00,,,0.29,VWS V14.01,2013-11-07 23:49:00,
2013-11-07 18:59:00,48.3,45.5,29.70,West,259,2.0,5.0,90,0.00,,,0.29,VWS V14.01,2013-11-07 23:59:00,
2013-11-07 19:09:00,47.7,44.3,29.70,South,178,1.0,5.0,88,0.00,,,0.29,VWS V14.01,2013-11-08 00:09:00,
2013-11-07 19:19:00,47.1,44.0,29.71,South,171,0.0,7.0,89,0.00,,,0.29,VWS V14.01,2013-11-08 00:19:00,
2013-11-07 19:29:00,46.7,43.9,29.72,SSW,212,0.0,3.0,90,0.00,,,0.29,VWS V14.01,2013-11-08 00:29:00,
2013-11-07 19:39:00,46.3,44.1,29.72,SSW,211,1.0,2.0,92,0.00,,,0.29,VWS V14.01,2013-11-08 00:39:00,
2013-11-07 19:49:00,45.8,43.3,29.72,East,88,2.0,6.0,91,0.00,,,0.29,VWS V14.01,2013-11-08 00:49:00,
2013-11-07 19:59:00,45.5,42.7,29.73,ESE,122,2.0,3.0,90,0.00,,,0.29,VWS V14.01,2013-11-08 00:59:00,
2013-11-07 20:09:00,45.3,42.5,29.73,WNW,282,1.0,3.0,90,0.00,,,0.29,VWS V14.01,2013-11-08 01:09:00,
2013-11-07 20:19:00,45.1,42.6,29.73,SSW,201,4.0,4.0,91,0.00,,,0.29,VWS V14.01,2013-11-08 01:19:00,
2013-11-07 20:29:00,44.8,42.6,29.73,ENE,60,0.0,4.0,92,0.00,,,0.29,VWS V14.01,2013-11-08 01:29:00,
2013-11-07 20:39:00,44.7,42.8,29.73,ESE,109,0.0,2.0,93,0.00,,,0.29,VWS V14.01,2013-11-08 01:39:00,
2013-11-07 20:49:00,44.7,42.8,29.73,NNE,18,1.0,3.0,93,0.00,,,0.29,VWS V14.01,2013-11-08 01:49:00,
2013-11-07 20:59:00,45.1,42.9,29.74,NE,45,0.0,3.0,92,0.00,,,0.29,VWS V14.01,2013-11-08 01:59:00,
2013-11-07 21:09:00,45.3,42.8,29.74,SW,236,1.0,4.0,91,0.00,,,0.29,VWS V14.01,2013-11-08 02:09:00,
2013-11-07 21:19:00,45.6,42.5,29.75,WSW,255,5.0,9.0,89,0.00,,,0.29,VWS V14.01,2013-11-08 02:19:00,
2013-11-07 21:29:00,45.9,42.0,29.75,East,87,2.0,6.0,86,0.00,,,0.29,VWS V14.01,2013-11-08 02:29:00,
2013-11-07 21:39:00,46.0,42.0,29.75,NNE,25,1.0,9.0,86,0.00,,,0.29,VWS V14.01,2013-11-08 02:39:00,
2013-11-07 21:49:00,46.0,41.8,29.75,SSW,205,2.0,5.0,85,0.00,,,0.29,VWS V14.01,2013-11-08 02:49:00,
2013-11-07 21:59:00,46.0,42.3,29.75,West,275,1.0,5.0,87,0.00,,,0.29,VWS V14.01,2013-11-08 02:59:00,
2013-11-07 22:09:00,45.8,41.5,29.75,ENE,60,0.0,3.0,85,0.00,,,0.29,VWS V14.01,2013-11-08 03:09:00,
2013-11-07 22:19:00,45.6,41.0,29.75,SW,224,0.0,7.0,84,0.00,,,0.29,VWS V14.01,2013-11-08 03:19:00,
2013-11-07 22:29:00,45.4,41.2,29.75,SW,214,1.0,6.0,85,0.00,,,0.29,VWS V14.01,2013-11-08 03:29:00,
2013-11-07 22:39:00,45.1,41.2,29.75,SSW,195,3.0,6.0,86,0.00,,,0.29,VWS V14.01,2013-11-08 03:39:00,
2013-11-07 22:49:00,44.6,40.4,29.75,South,169,1.0,4.0,85,0.00,,,0.29,VWS V14.01,2013-11-08 03:49:00,
2013-11-07 22:59:00,44.0,39.2,29.75,SW,215,0.0,3.0,83,0.00,,,0.29,VWS V14.01,2013-11-08 03:59:00,
2013-11-07 23:09:00,43.6,39.7,29.75,South,190,0.0,3.0,86,0.00,,,0.29,VWS V14.01,2013-11-08 04:09:00,
2013-11-07 23:19:00,43.0,39.4,29.75,South,190,0.0,0.0,87,0.00,,,0.29,VWS V14.01,2013-11-08 04:19:00,
2013-11-07 23:29:00,42.2,38.9,29.76,South,190,0.0,1.0,88,0.00,,,0.29,VWS V14.01,2013-11-08 04:29:00,
2013-11-07 23:39:00,41.5,38.5,29.76,South,190,0.0,1.0,89,0.00,,,0.29,VWS V14.01,2013-11-08 04:39:00,
2013-11-07 23:49:00,40.8,37.5,29.76,South,190,1.0,1.0,88,0.00,,,0.29,VWS V14.01,2013-11-08 04:49:00,
2013-11-07 23:59:00,40.2,36.9,29.76,South,190,0.0,1.0,88,0.00,,,0.00,VWS V14.01,2013-11-08 04:59:00,